createdAt,value
2019-04-18T00:00:08.546Z,30.93
2019-04-18T00:02:47.950Z,21.07
2019-04-18T00:05:34.938Z,21.13
2019-04-18T00:08:01.296Z,20.23
2019-04-18T00:10:28.728Z,26.13
2019-04-18T00:12:57.940Z,17.60
2019-04-18T00:15:38.229Z,19.07
2019-04-18T00:17:53.200Z,17.70
2019-04-18T00:20:19.705Z,21.67
2019-04-18T00:22:46.168Z,18.40
2019-04-18T00:25:13.600Z,18.53
2019-04-18T00:27:40.252Z,16.90
2019-04-18T00:30:07.296Z,19.97
2019-04-18T00:32:33.719Z,13.63
2019-04-18T00:35:00.997Z,17.17
2019-04-18T00:37:27.522Z,17.37
2019-04-18T00:39:54.173Z,15.13
2019-04-18T00:42:22.438Z,15.13
2019-04-18T00:44:50.133Z,21.50
2019-04-18T00:47:21.303Z,17.40
2019-04-18T00:49:44.989Z,25.57
2019-04-18T00:52:16.696Z,15.70
2019-04-18T00:54:39.988Z,17.97
2019-04-18T00:57:07.850Z,15.40
2019-04-18T00:59:34.942Z,19.43
2019-04-18T01:02:01.257Z,28.13
2019-04-18T01:04:33.002Z,27.37
2019-04-18T01:06:55.919Z,26.93
2019-04-18T01:09:22.342Z,28.57
2019-04-18T01:11:48.733Z,26.90
2019-04-18T01:14:17.214Z,27.90
2019-04-18T01:16:43.638Z,22.30
2019-04-18T01:19:10.324Z,26.13
2019-04-18T01:21:38.338Z,20.53
2019-04-18T01:24:05.380Z,23.20
2019-04-18T01:26:31.799Z,19.97
2019-04-18T01:28:58.674Z,21.43
2019-04-18T01:31:25.156Z,20.73
2019-04-18T01:33:51.773Z,18.27
2019-04-18T01:36:18.107Z,17.83
2019-04-18T01:38:44.740Z,20.33
2019-04-18T01:41:13.259Z,21.50
2019-04-18T01:43:47.177Z,20.50
2019-04-18T01:46:23.264Z,23.40
2019-04-18T01:48:50.555Z,21.07
2019-04-18T01:51:21.636Z,20.37
2019-04-18T01:53:46.108Z,26.83
2019-04-18T01:56:13.540Z,15.00
2019-04-18T01:58:39.878Z,18.10
2019-04-18T02:01:06.408Z,22.03
2019-04-18T02:03:33.906Z,20.50
2019-04-18T02:06:06.744Z,17.37
2019-04-18T02:08:29.198Z,19.40
2019-04-18T02:10:55.931Z,20.60
2019-04-18T02:13:23.316Z,16.37
2019-04-18T02:15:50.076Z,16.53
2019-04-18T02:18:21.077Z,14.60
2019-04-18T02:20:46.945Z,17.80
2019-04-18T02:23:13.307Z,44.30
2019-04-18T02:25:42.608Z,46.80
2019-04-18T02:28:08.040Z,47.57
2019-04-18T02:30:34.469Z,50.47
2019-04-18T02:33:00.944Z,58.03
2019-04-18T02:35:29.680Z,54.27
2019-04-18T02:37:55.563Z,39.90
2019-04-18T02:40:21.916Z,37.60
2019-04-18T02:42:50.161Z,43.73
2019-04-18T02:45:16.620Z,47.80
2019-04-18T02:47:42.952Z,44.37
2019-04-18T02:50:11.659Z,36.37
2019-04-18T02:52:38.112Z,32.40
2019-04-18T02:55:09.840Z,35.13
2019-04-18T02:57:38.111Z,37.00
2019-04-18T03:00:26.399Z,38.53
2019-04-18T03:02:54.763Z,37.93
2019-04-18T03:05:32.583Z,41.17
2019-04-18T03:07:51.839Z,37.03
2019-04-18T03:10:17.868Z,36.93
2019-04-18T03:12:44.263Z,32.57
2019-04-18T03:15:12.962Z,33.03
2019-04-18T03:17:40.217Z,32.10
2019-04-18T03:20:06.910Z,27.43
2019-04-18T03:22:39.261Z,28.23
2019-04-18T03:25:06.849Z,25.90
2019-04-18T03:27:34.359Z,22.97
2019-04-18T03:30:01.711Z,28.33
2019-04-18T03:32:36.228Z,22.60
2019-04-18T03:34:57.235Z,25.03
2019-04-18T03:37:23.789Z,21.70
2019-04-18T03:39:51.222Z,28.87
2019-04-18T03:42:18.700Z,29.43
2019-04-18T03:44:56.283Z,17.17
2019-04-18T03:47:40.019Z,22.17
2019-04-18T03:50:07.682Z,23.97
2019-04-18T03:52:34.112Z,20.27
2019-04-18T03:55:00.544Z,20.10
2019-04-18T03:57:27.189Z,16.00
2019-04-18T03:59:53.916Z,19.70
2019-04-18T04:02:20.215Z,19.37
2019-04-18T04:04:46.567Z,17.50
2019-04-18T04:07:12.954Z,19.67
2019-04-18T04:09:39.313Z,19.77
2019-04-18T04:12:06.014Z,27.17
2019-04-18T04:14:32.341Z,30.87
2019-04-18T04:16:58.682Z,23.10
2019-04-18T04:19:25.016Z,21.07
2019-04-18T04:21:51.348Z,21.00
2019-04-18T04:24:17.970Z,28.60
2019-04-18T04:26:44.703Z,21.00
2019-04-18T04:29:11.829Z,25.60
2019-04-18T04:31:38.261Z,21.70
2019-04-18T04:34:09.697Z,25.57
2019-04-18T04:36:34.125Z,20.63
2019-04-18T04:39:00.575Z,25.17
2019-04-18T04:41:26.879Z,22.37
2019-04-18T04:43:54.746Z,24.67
2019-04-18T04:46:21.545Z,28.10
2019-04-18T04:48:59.853Z,32.80
2019-04-18T04:51:41.840Z,26.00
2019-04-18T04:54:27.065Z,32.90
2019-04-18T04:57:10.295Z,24.97
2019-04-18T04:59:46.109Z,30.40
2019-04-18T05:02:09.843Z,28.27
2019-04-18T05:04:36.695Z,24.73
2019-04-18T05:07:03.014Z,21.87
2019-04-18T05:09:32.347Z,21.63
2019-04-18T05:11:58.118Z,24.90
2019-04-18T05:14:24.581Z,22.50
2019-04-18T05:16:54.284Z,20.83
2019-04-18T05:19:25.140Z,21.87
2019-04-18T05:21:51.451Z,20.40
2019-04-18T05:24:24.534Z,20.20
2019-04-18T05:26:46.072Z,33.13
2019-04-18T05:29:14.855Z,18.80
2019-04-18T05:31:42.021Z,19.17
2019-04-18T05:34:11.184Z,27.73
2019-04-18T05:36:48.701Z,22.20
2019-04-18T05:39:07.886Z,21.50
2019-04-18T05:41:34.612Z,22.63
2019-04-18T05:44:00.933Z,25.10
2019-04-18T05:46:29.198Z,24.97
2019-04-18T05:49:00.223Z,23.00
2019-04-18T05:51:31.294Z,18.87
2019-04-18T05:53:59.533Z,21.93
2019-04-18T05:56:28.017Z,19.37
2019-04-18T05:58:56.972Z,18.07
2019-04-18T06:01:29.996Z,21.73
2019-04-18T06:04:15.625Z,20.13
2019-04-18T06:06:54.128Z,18.13
2019-04-18T06:09:20.471Z,20.33
2019-04-18T06:11:49.043Z,15.47
2019-04-18T06:14:34.214Z,21.93
2019-04-18T06:17:05.595Z,30.73
2019-04-18T06:19:33.933Z,18.23
2019-04-18T06:22:02.528Z,31.37
2019-04-18T06:24:34.170Z,23.97
2019-04-18T06:27:07.868Z,18.23
2019-04-18T06:29:53.266Z,18.43
2019-04-18T06:32:21.952Z,19.70
2019-04-18T06:35:02.746Z,23.83
2019-04-18T06:37:35.644Z,22.30
2019-04-18T06:39:58.406Z,16.20
2019-04-18T06:42:24.905Z,17.50
2019-04-18T06:44:51.526Z,19.27
2019-04-18T06:47:18.860Z,19.37
2019-04-18T06:49:47.649Z,23.90
2019-04-18T06:52:13.990Z,17.13
2019-04-18T06:54:40.390Z,17.47
2019-04-18T06:57:07.683Z,14.60
2019-04-18T06:59:34.409Z,20.73
2019-04-18T07:02:01.062Z,17.00
2019-04-18T07:04:28.885Z,17.00
2019-04-18T07:06:57.540Z,17.73
2019-04-18T07:09:31.495Z,17.27
2019-04-18T07:11:56.045Z,18.20
2019-04-18T07:14:25.959Z,17.50
2019-04-18T07:16:51.009Z,20.73
2019-04-18T07:19:22.213Z,16.80
2019-04-18T07:21:50.434Z,23.73
2019-04-18T07:24:17.332Z,22.60
2019-04-18T07:26:43.696Z,22.20
2019-04-18T07:29:12.180Z,25.13
2019-04-18T07:31:41.758Z,23.00
2019-04-18T07:34:10.202Z,21.30
2019-04-18T07:36:39.015Z,19.23
2019-04-18T07:39:06.173Z,16.63
2019-04-18T07:41:32.630Z,17.80
2019-04-18T07:43:58.975Z,19.90
2019-04-18T07:46:28.816Z,22.80
2019-04-18T07:48:53.574Z,17.23
2019-04-18T07:51:21.422Z,25.97
2019-04-18T07:53:49.441Z,34.13
2019-04-18T07:56:15.892Z,15.97
2019-04-18T07:58:42.264Z,14.40
2019-04-18T08:01:10.191Z,15.53
2019-04-18T08:03:40.211Z,16.80
2019-04-18T08:06:05.098Z,19.03
2019-04-18T08:08:31.415Z,19.33
2019-04-18T08:10:58.103Z,14.10
2019-04-18T08:13:24.773Z,13.73
2019-04-18T08:15:55.147Z,16.80
2019-04-18T08:18:19.841Z,18.07
2019-04-18T08:20:48.430Z,23.30
2019-04-18T08:23:23.891Z,19.17
2019-04-18T08:25:45.657Z,16.80
2019-04-18T08:28:14.087Z,14.47
2019-04-18T08:30:40.601Z,17.20
2019-04-18T08:33:06.948Z,19.50
2019-04-18T08:35:49.884Z,13.97
2019-04-18T08:38:18.099Z,17.83
2019-04-18T08:40:58.693Z,18.03
2019-04-18T08:43:42.109Z,20.30
2019-04-18T08:46:12.194Z,16.00
2019-04-18T08:48:40.219Z,15.83
2019-04-18T08:51:15.598Z,17.43
2019-04-18T08:53:49.521Z,18.93
2019-04-18T08:56:35.573Z,20.43
2019-04-18T08:59:00.569Z,15.57
2019-04-18T09:01:27.221Z,13.87
2019-04-18T09:03:53.842Z,14.40
2019-04-18T09:06:30.356Z,16.33
2019-04-18T09:08:51.657Z,13.90
2019-04-18T09:11:24.312Z,10.50
2019-04-18T09:13:55.090Z,9.33
2019-04-18T09:16:15.821Z,10.43
2019-04-18T09:18:43.795Z,13.83
2019-04-18T09:21:20.809Z,10.53
2019-04-18T09:23:43.355Z,19.73
2019-04-18T09:26:07.544Z,11.10
2019-04-18T09:28:44.494Z,9.57
2019-04-18T09:31:02.748Z,8.77
2019-04-18T09:33:29.114Z,11.30
2019-04-18T09:35:58.636Z,11.67
2019-04-18T09:38:25.024Z,11.13
2019-04-18T09:40:51.654Z,13.40
2019-04-18T09:43:23.983Z,10.70
2019-04-18T09:45:47.281Z,14.40
2019-04-18T09:48:13.738Z,13.00
2019-04-18T09:50:40.369Z,11.70
2019-04-18T09:53:07.109Z,8.47
2019-04-18T09:55:33.527Z,9.97
2019-04-18T09:58:00.241Z,13.57
2019-04-18T10:00:27.299Z,9.10
2019-04-18T10:02:54.033Z,10.43
2019-04-18T10:05:27.338Z,7.83
2019-04-18T10:07:51.822Z,11.60
2019-04-18T10:10:18.662Z,9.60
2019-04-18T10:12:45.428Z,10.10
2019-04-18T10:15:16.390Z,8.50
2019-04-18T10:17:40.956Z,9.07
2019-04-18T10:20:14.223Z,11.50
2019-04-18T10:22:42.536Z,11.27
2019-04-18T10:25:27.796Z,9.93
2019-04-18T10:27:58.710Z,8.50
2019-04-18T10:30:31.763Z,19.10
2019-04-18T10:32:58.661Z,11.77
2019-04-18T10:35:25.314Z,10.50
2019-04-18T10:37:51.647Z,9.37
2019-04-18T10:40:18.545Z,7.40
2019-04-18T10:42:45.208Z,7.57
2019-04-18T10:45:12.326Z,8.77
2019-04-18T10:47:51.197Z,7.70
2019-04-18T10:50:18.896Z,7.57
2019-04-18T10:52:45.667Z,7.40
2019-04-18T10:55:12.017Z,11.33
2019-04-18T10:57:38.773Z,10.83
2019-04-18T11:00:05.839Z,8.90
2019-04-18T11:02:32.386Z,6.93
2019-04-18T11:04:58.722Z,8.00
2019-04-18T11:07:25.046Z,11.80
2019-04-18T11:09:51.443Z,9.33
2019-04-18T11:12:17.746Z,14.40
2019-04-18T11:14:44.074Z,8.03
2019-04-18T11:17:11.201Z,6.90
2019-04-18T11:19:37.598Z,7.27
2019-04-18T11:22:04.021Z,10.80
2019-04-18T11:24:30.381Z,7.70
2019-04-18T11:26:56.998Z,9.83
2019-04-18T11:29:23.636Z,11.03
2019-04-18T11:31:50.286Z,9.97
2019-04-18T11:34:22.416Z,10.33
2019-04-18T11:36:50.058Z,12.00
2019-04-18T11:39:17.449Z,5.37
2019-04-18T11:41:44.851Z,9.70
2019-04-18T11:44:11.455Z,8.03
2019-04-18T11:46:38.091Z,9.50
2019-04-18T11:49:04.737Z,8.13
2019-04-18T11:51:32.130Z,7.50
2019-04-18T11:53:59.026Z,6.90
2019-04-18T11:56:30.407Z,8.20
2019-04-18T11:58:56.977Z,10.80
2019-04-18T12:01:31.263Z,10.90
2019-04-18T12:03:55.631Z,7.93
2019-04-18T12:06:22.955Z,10.80
2019-04-18T12:08:49.312Z,7.10
2019-04-18T12:11:16.037Z,5.50
2019-04-18T12:13:42.364Z,7.67
2019-04-18T12:16:09.656Z,6.43
2019-04-18T12:18:36.269Z,5.40
2019-04-18T12:21:03.857Z,6.67
2019-04-18T12:23:30.686Z,11.87
2019-04-18T12:25:57.051Z,4.37
2019-04-18T12:28:43.698Z,4.63
2019-04-18T12:31:10.049Z,5.57
2019-04-18T12:33:37.003Z,4.90
2019-04-18T12:36:08.667Z,4.80
2019-04-18T12:38:38.931Z,5.30
2019-04-18T12:41:08.408Z,5.60
2019-04-18T12:43:32.261Z,6.40
2019-04-18T12:45:58.600Z,4.83
2019-04-18T12:48:27.135Z,5.37
2019-04-18T12:50:53.477Z,13.63
2019-04-18T12:53:21.170Z,5.50
2019-04-18T12:55:48.621Z,5.13
2019-04-18T12:58:15.266Z,6.63
2019-04-18T13:00:42.266Z,8.70
2019-04-18T13:03:09.208Z,5.73
2019-04-18T13:05:35.820Z,6.73
2019-04-18T13:08:25.781Z,5.10
2019-04-18T13:10:54.890Z,5.40
2019-04-18T13:13:26.334Z,4.80
2019-04-18T13:15:57.209Z,5.60
2019-04-18T13:18:23.530Z,4.77
2019-04-18T13:20:50.232Z,5.53
2019-04-18T13:23:16.732Z,5.27
2019-04-18T13:25:43.107Z,6.20
2019-04-18T13:28:09.928Z,6.20
2019-04-18T13:30:39.132Z,5.37
2019-04-18T13:33:06.407Z,5.23
2019-04-18T13:35:32.839Z,8.93
2019-04-18T13:37:59.633Z,6.10
2019-04-18T13:40:26.814Z,6.00
2019-04-18T13:42:53.449Z,6.20
2019-04-18T13:45:19.908Z,4.70
2019-04-18T13:47:47.122Z,11.23
2019-04-18T13:50:15.427Z,5.60
2019-04-18T13:52:42.732Z,7.60
2019-04-18T13:55:13.233Z,5.67
2019-04-18T13:57:41.067Z,4.50
2019-04-18T14:00:08.297Z,6.10
2019-04-18T14:02:35.083Z,4.20
2019-04-18T14:05:01.836Z,3.50
2019-04-18T14:07:29.405Z,4.87
2019-04-18T14:09:55.864Z,4.00
2019-04-18T14:12:22.286Z,3.70
2019-04-18T14:14:49.011Z,8.13
2019-04-18T14:17:15.395Z,3.77
2019-04-18T14:19:42.057Z,2.83
2019-04-18T14:22:08.781Z,4.20
2019-04-18T14:24:35.269Z,3.80
2019-04-18T14:27:03.498Z,3.73
2019-04-18T14:29:30.060Z,4.00
2019-04-18T14:31:56.454Z,9.33
2019-04-18T14:34:22.972Z,10.90
2019-04-18T14:36:50.187Z,11.57
2019-04-18T14:39:16.826Z,6.70
2019-04-18T14:41:43.179Z,4.57
2019-04-18T14:44:09.495Z,11.00
2019-04-18T14:46:35.918Z,13.60
2019-04-18T14:49:03.650Z,10.07
2019-04-18T14:51:30.294Z,11.50
2019-04-18T14:53:57.710Z,7.73
2019-04-18T14:56:24.412Z,5.70
2019-04-18T14:58:51.134Z,9.83
2019-04-18T15:01:17.486Z,6.10
2019-04-18T15:03:44.529Z,5.67
2019-04-18T15:06:11.230Z,8.40
2019-04-18T15:08:39.491Z,10.13
2019-04-18T15:11:06.294Z,11.93
2019-04-18T15:13:32.645Z,8.90
2019-04-18T15:15:59.522Z,4.67
2019-04-18T15:18:26.323Z,9.63
2019-04-18T15:20:52.758Z,11.73
2019-04-18T15:23:19.479Z,7.90
2019-04-18T15:25:45.999Z,12.27
2019-04-18T15:28:13.289Z,7.80
2019-04-18T15:30:39.948Z,10.60
2019-04-18T15:33:11.524Z,7.37
2019-04-18T15:35:34.921Z,7.50
2019-04-18T15:38:01.394Z,10.53
2019-04-18T15:40:30.681Z,13.97
2019-04-18T15:42:57.481Z,7.77
2019-04-18T15:45:30.085Z,10.40
2019-04-18T15:47:57.993Z,10.03
2019-04-18T15:50:24.900Z,8.50
2019-04-18T15:52:58.325Z,6.07
2019-04-18T15:55:19.501Z,6.20
2019-04-18T15:57:45.822Z,6.17
2019-04-18T16:00:25.267Z,7.57
2019-04-18T16:02:52.151Z,11.27
2019-04-18T16:05:18.585Z,6.37
2019-04-18T16:07:46.154Z,10.60
2019-04-18T16:10:19.378Z,8.50
2019-04-18T16:12:41.362Z,6.23
2019-04-18T16:15:24.444Z,9.50
2019-04-18T16:17:50.977Z,7.63
2019-04-18T16:20:18.765Z,10.43
2019-04-18T16:22:45.681Z,7.93
2019-04-18T16:25:14.045Z,9.83
2019-04-18T16:27:40.726Z,9.10
2019-04-18T16:30:08.380Z,8.67
2019-04-18T16:32:35.239Z,6.97
2019-04-18T16:35:02.109Z,7.43
2019-04-18T16:37:28.781Z,6.70
2019-04-18T16:39:55.087Z,8.30
2019-04-18T16:42:21.960Z,6.80
2019-04-18T16:44:48.702Z,7.53
2019-04-18T16:47:15.369Z,6.40
2019-04-18T16:49:42.413Z,7.93
2019-04-18T16:52:09.124Z,9.40
2019-04-18T16:54:35.528Z,7.47
2019-04-18T16:57:05.025Z,9.87
2019-04-18T16:59:30.539Z,10.60
2019-04-18T17:01:57.236Z,6.93
2019-04-18T17:04:24.570Z,8.43
2019-04-18T17:06:51.522Z,15.23
2019-04-18T17:09:19.860Z,8.43
2019-04-18T17:11:46.183Z,8.60
2019-04-18T17:14:12.480Z,6.70
2019-04-18T17:16:39.093Z,4.80
2019-04-18T17:19:05.431Z,5.40
2019-04-18T17:21:32.062Z,5.40
2019-04-18T17:23:58.394Z,6.00
2019-04-18T17:26:25.548Z,9.30
2019-04-18T17:28:56.214Z,11.63
2019-04-18T17:31:20.597Z,8.70
2019-04-18T17:33:46.999Z,6.00
2019-04-18T17:36:30.403Z,5.17
2019-04-18T17:39:00.980Z,8.93
2019-04-18T17:41:18.405Z,8.73
2019-04-18T17:43:45.606Z,6.90
2019-04-18T17:46:11.974Z,9.83
2019-04-18T17:48:39.526Z,6.80
2019-04-18T17:51:10.988Z,10.93
2019-04-18T17:53:46.734Z,11.17
2019-04-18T17:56:12.987Z,8.17
2019-04-18T17:58:32.992Z,10.27
2019-04-18T18:00:59.678Z,8.50
2019-04-18T18:03:35.441Z,6.50
2019-04-18T18:06:03.756Z,7.77
2019-04-18T18:08:24.521Z,15.17
2019-04-18T18:10:55.375Z,9.40
2019-04-18T18:13:23.670Z,7.93
2019-04-18T18:16:00.468Z,7.10
2019-04-18T18:18:31.996Z,7.40
2019-04-18T18:21:00.852Z,12.30
2019-04-18T18:23:26.077Z,6.33
2019-04-18T18:25:56.985Z,8.40
2019-04-18T18:28:22.919Z,12.40
2019-04-18T18:30:51.522Z,12.53
2019-04-18T18:33:22.812Z,7.20
2019-04-18T18:36:00.374Z,11.40
2019-04-18T18:38:23.646Z,9.60
2019-04-18T18:40:56.474Z,20.43
2019-04-18T18:43:21.125Z,5.83
2019-04-18T18:45:47.794Z,9.57
2019-04-18T18:48:19.133Z,8.43
2019-04-18T18:50:43.772Z,8.23
2019-04-18T18:53:11.141Z,13.43
2019-04-18T18:55:37.703Z,13.30
2019-04-18T18:58:05.046Z,9.20
2019-04-18T19:00:35.963Z,7.30
2019-04-18T19:03:01.473Z,8.93
2019-04-18T19:05:42.896Z,10.60
2019-04-18T19:08:14.092Z,6.70
2019-04-18T19:13:22.670Z,8.70
2019-04-18T19:15:46.559Z,12.17
2019-04-18T19:17:54.198Z,15.40
2019-04-18T19:20:21.522Z,12.07
2019-04-18T19:22:48.223Z,12.60
2019-04-18T19:25:14.855Z,11.70
2019-04-18T19:27:47.786Z,17.83
2019-04-18T19:30:16.216Z,9.90
2019-04-18T19:32:45.429Z,11.13
2019-04-18T19:35:31.608Z,14.07
2019-04-18T19:37:58.586Z,9.83
2019-04-18T19:40:42.873Z,10.83
2019-04-18T19:42:45.088Z,8.50
2019-04-18T19:45:11.516Z,8.87
2019-04-18T19:47:37.446Z,10.33
2019-04-18T19:50:05.676Z,16.47
2019-04-18T19:52:36.736Z,12.70
2019-04-18T19:55:01.552Z,9.23
2019-04-18T19:57:28.527Z,12.43
2019-04-18T19:59:55.058Z,11.33
2019-04-18T20:02:23.030Z,12.00
2019-04-18T20:04:52.480Z,11.03
2019-04-18T20:07:33.880Z,12.93
2019-04-18T20:09:59.208Z,10.50
2019-04-18T20:12:25.632Z,16.50
2019-04-18T20:14:44.505Z,10.70
2019-04-18T20:17:13.553Z,10.10
2019-04-18T20:19:39.511Z,13.00
2019-04-18T20:22:08.049Z,10.10
2019-04-18T20:24:35.584Z,13.87
2019-04-18T20:27:03.182Z,13.57
2019-04-18T20:29:38.337Z,12.63
2019-04-18T20:32:00.268Z,13.23
2019-04-18T20:34:28.876Z,10.17
2019-04-18T20:37:09.602Z,10.93
2019-04-18T20:39:43.388Z,11.27
2019-04-18T20:42:15.790Z,11.50
2019-04-18T20:44:33.677Z,14.40
2019-04-18T20:47:02.854Z,11.37
2019-04-18T20:49:34.189Z,12.10
2019-04-18T20:51:53.312Z,12.00
2019-04-18T20:54:34.445Z,12.10
2019-04-18T20:56:44.440Z,10.97
2019-04-18T20:59:23.379Z,15.43
2019-04-18T21:01:54.911Z,17.33
2019-04-18T21:04:23.171Z,14.90
2019-04-18T21:07:00.951Z,12.10
2019-04-18T21:09:25.971Z,15.33
2019-04-18T21:11:47.106Z,13.00
2019-04-18T21:14:13.747Z,12.67
2019-04-18T21:16:43.587Z,10.90
2019-04-18T21:19:09.900Z,11.27
2019-04-18T21:21:36.538Z,13.93
2019-04-18T21:24:04.203Z,15.83
2019-04-18T21:26:31.897Z,18.90
2019-04-18T21:29:00.237Z,12.30
2019-04-18T21:31:28.419Z,18.53
2019-04-18T21:34:03.902Z,23.93
2019-04-18T21:36:34.297Z,15.00
2019-04-18T21:39:06.045Z,16.93
2019-04-18T21:41:33.997Z,16.87
2019-04-18T21:44:06.813Z,21.70
2019-04-18T21:46:29.268Z,20.63
2019-04-18T21:48:59.489Z,26.10
2019-04-18T21:51:25.270Z,16.90
2019-04-18T21:53:57.955Z,18.83
2019-04-18T21:56:20.748Z,14.37
2019-04-18T21:59:01.118Z,14.03
2019-04-18T22:01:31.842Z,20.73
2019-04-18T22:03:56.623Z,15.20
2019-04-18T22:06:27.891Z,13.97
2019-04-18T22:08:57.210Z,15.70
2019-04-18T22:11:21.836Z,14.20
2019-04-18T22:13:48.817Z,12.77
2019-04-18T22:16:15.450Z,15.40
2019-04-18T22:18:42.163Z,16.43
2019-04-18T22:21:11.844Z,17.30
2019-04-18T22:23:40.805Z,20.43
2019-04-18T22:26:06.439Z,16.43
2019-04-18T22:28:38.079Z,14.20
2019-04-18T22:31:02.326Z,10.83
2019-04-18T22:33:34.620Z,15.20
2019-04-18T22:35:57.237Z,15.33
2019-04-18T22:38:31.233Z,12.93
2019-04-18T22:40:56.223Z,13.70
2019-04-18T22:43:20.314Z,15.20
2019-04-18T22:45:48.799Z,14.27
2019-04-18T22:48:15.816Z,15.70
2019-04-18T22:50:43.292Z,15.00
2019-04-18T22:53:13.148Z,12.77
2019-04-18T22:55:39.541Z,16.73
2019-04-18T22:58:08.836Z,18.70
2019-04-18T23:00:35.938Z,15.20
2019-04-18T23:03:04.433Z,16.07
2019-04-18T23:05:32.621Z,12.87
2019-04-18T23:08:12.699Z,15.17
2019-04-18T23:10:31.676Z,14.70
2019-04-18T23:12:56.953Z,14.30
2019-04-18T23:15:28.355Z,20.63
2019-04-18T23:17:52.010Z,13.00
2019-04-18T23:20:25.378Z,14.47
2019-04-18T23:22:49.314Z,15.73
2019-04-18T23:25:17.432Z,15.30
2019-04-18T23:27:44.210Z,14.77
2019-04-18T23:30:13.577Z,15.37
2019-04-18T23:32:39.846Z,19.90
2019-04-18T23:35:06.907Z,12.67
2019-04-18T23:37:35.170Z,19.17
2019-04-18T23:40:09.559Z,14.60
2019-04-18T23:42:44.369Z,14.47
2019-04-18T23:45:09.154Z,15.70
2019-04-18T23:47:41.200Z,14.40
2019-04-18T23:50:08.520Z,15.10
2019-04-18T23:52:36.790Z,16.03
2019-04-18T23:55:13.680Z,13.90
2019-04-18T23:57:36.752Z,15.43
